Time;durP1;ratioP1;P1;durP2;ratioP2;P2;SDS_P1;SDS_P2;PMS_P1;PMS_P2;Temp;Humidity;BMP_temperature;BMP_pressure;BME280_temperature;BME280_humidity;BME280_pressure;Samples;Min_cycle;Max_cycle;Signal;HPM_P1;HPM_P2
2022/06/30 00:01:32;;;;;;;2.40;1.38;;;;;;;17.11;96.85;100469.72;5178302;28;20034;-72
2022/06/30 00:04:03;;;;;;;4.88;1.60;;;;;;;16.88;97.90;100475.56;5179883;28;20113;-72
2022/06/30 00:06:33;;;;;;;3.60;1.80;;;;;;;16.90;98.03;100457.84;5178381;28;20483;-72
2022/06/30 00:09:04;;;;;;;5.40;1.70;;;;;;;16.85;97.84;100458.16;5183835;28;20038;-72
2022/06/30 00:11:34;;;;;;;2.28;1.50;;;;;;;17.12;97.28;100453.75;5179745;28;20061;-72
2022/06/30 00:14:05;;;;;;;3.50;1.50;;;;;;;17.37;95.11;100453.91;5180234;28;20120;-71
2022/06/30 00:16:35;;;;;;;2.55;1.58;;;;;;;17.27;94.69;100454.53;5177562;28;20562;-69
2022/06/30 00:19:05;;;;;;;2.58;1.50;;;;;;;17.24;94.30;100445.03;5184122;28;20080;-72
2022/06/30 00:21:36;;;;;;;2.83;1.40;;;;;;;17.23;94.52;100450.41;5190974;28;20686;-72
2022/06/30 00:24:06;;;;;;;2.28;1.65;;;;;;;17.20;94.22;100450.63;5178081;28;20091;-72
2022/06/30 00:26:36;;;;;;;8.80;1.52;;;;;;;16.89;96.45;100445.59;5182773;28;20037;-71
2022/06/30 00:29:07;;;;;;;3.78;1.77;;;;;;;16.86;97.20;100444.00;5183019;28;20028;-72
2022/06/30 00:31:37;;;;;;;2.63;1.50;;;;;;;16.88;96.26;100443.91;5183687;28;20029;-71
2022/06/30 00:34:08;;;;;;;3.08;1.83;;;;;;;17.08;93.76;100436.41;5183562;28;20495;-74
2022/06/30 00:36:38;;;;;;;2.53;1.58;;;;;;;17.00;93.20;100435.19;5187727;28;20057;-72
2022/06/30 00:39:09;;;;;;;3.60;1.55;;;;;;;16.81;93.65;100442.59;5188730;28;20022;-74
2022/06/30 00:41:40;;;;;;;2.47;1.73;;;;;;;16.52;95.37;100443.56;5183242;28;20084;-74
2022/06/30 00:44:12;;;;;;;4.13;1.52;;;;;;;16.32;97.50;100451.81;5183507;28;20057;-74
2022/06/30 00:46:42;;;;;;;3.95;1.70;;;;;;;16.45;97.71;100450.16;5182654;28;20452;-74
2022/06/30 00:49:13;;;;;;;3.70;1.70;;;;;;;16.43;96.29;100448.56;5187712;28;20053;-74
2022/06/30 00:51:44;;;;;;;4.10;1.73;;;;;;;16.46;96.57;100457.16;5190165;28;20030;-74
2022/06/30 00:54:16;;;;;;;3.35;1.33;;;;;;;16.46;96.20;100446.59;5183033;28;20028;-74
2022/06/30 00:56:47;;;;;;;2.58;1.60;;;;;;;16.43;96.23;100457.34;5178947;28;20101;-74
2022/06/30 00:59:20;;;;;;;1.98;1.50;;;;;;;16.30;96.01;100452.84;5181462;28;20502;-73
2022/06/30 01:01:51;;;;;;;3.45;1.80;;;;;;;16.34;95.90;100452.56;5183160;28;20034;-73
2022/06/30 01:04:22;;;;;;;2.80;1.63;;;;;;;16.18;98.08;100445.69;5182883;28;20030;-74
2022/06/30 01:06:53;;;;;;;3.92;1.52;;;;;;;16.04;99.23;100449.13;5191620;28;20034;-74
2022/06/30 01:15:03;;;;;;;2.60;1.65;;;;;;;16.40;97.78;100451.38;5180822;28;20123;-74
2022/06/30 01:17:34;;;;;;;3.17;1.80;;;;;;;16.31;96.21;100441.34;5181952;28;20025;-73
2022/06/30 01:20:05;;;;;;;6.38;1.80;;;;;;;16.29;97.59;100451.16;5191629;28;20037;-74
2022/06/30 01:22:36;;;;;;;2.97;1.67;;;;;;;16.38;98.88;100454.09;5186794;28;20070;-74
2022/06/30 01:25:08;;;;;;;5.82;1.98;;;;;;;16.31;99.73;100450.13;5182356;28;20105;-74
2022/06/30 01:27:39;;;;;;;3.35;1.85;;;;;;;16.32;100.00;100454.47;5182025;28;20036;-72
2022/06/30 01:30:10;;;;;;;4.40;1.88;;;;;;;16.37;99.70;100452.41;5181237;28;20021;-74
2022/06/30 01:32:41;;;;;;;5.95;2.30;;;;;;;16.07;100.00;100445.47;5181509;28;20401;-74
2022/06/30 01:35:11;;;;;;;3.00;2.00;;;;;;;16.14;100.00;100450.28;5178683;28;20546;-73
2022/06/30 01:37:55;;;;;;;3.13;1.83;;;;;;;16.03;100.00;100441.34;5194590;28;20068;-74
2022/06/30 01:40:28;;;;;;;3.10;1.80;;;;;;;16.15;99.68;100440.59;5179266;28;20022;-73
2022/06/30 01:42:59;;;;;;;5.07;1.70;;;;;;;16.13;100.00;100442.47;5182055;28;20030;-74
2022/06/30 01:45:30;;;;;;;4.93;1.90;;;;;;;15.88;100.00;100440.44;5181934;28;20763;-74
2022/06/30 01:48:00;;;;;;;3.85;1.70;;;;;;;15.84;100.00;100444.22;5181146;28;20109;-74
2022/06/30 01:50:31;;;;;;;2.47;1.70;;;;;;;16.11;100.00;100444.34;5193694;28;20033;-74
2022/06/30 01:53:02;;;;;;;3.55;1.60;;;;;;;16.24;97.87;100445.31;5183654;28;20064;-73
2022/06/30 01:55:32;;;;;;;6.00;1.98;;;;;;;16.11;99.45;100453.13;5181850;28;20018;-74
2022/06/30 01:58:03;;;;;;;3.63;1.85;;;;;;;15.99;99.46;100448.56;5181295;28;20065;-74
2022/06/30 02:00:33;;;;;;;5.13;1.85;;;;;;;16.14;98.83;100450.28;5180948;28;20030;-74
2022/06/30 02:03:04;;;;;;;4.30;1.75;;;;;;;16.34;98.05;100447.28;5182029;28;20105;-74
2022/06/30 02:05:34;;;;;;;2.88;1.90;;;;;;;16.47;97.80;100440.38;5184796;28;20029;-73
2022/06/30 02:08:05;;;;;;;3.78;2.10;;;;;;;16.25;99.17;100439.94;5191659;28;20507;-73
2022/06/30 02:10:35;;;;;;;3.03;1.80;;;;;;;16.27;100.00;100438.06;5181554;28;20467;-74
2022/06/30 02:13:05;;;;;;;5.53;2.00;;;;;;;16.44;98.25;100439.69;5181279;28;20033;-74
2022/06/30 02:15:36;;;;;;;4.65;2.22;;;;;;;16.47;98.47;100436.88;5206528;23;20099;-73
2022/06/30 02:18:08;;;;;;;6.38;1.98;;;;;;;16.64;97.20;100429.63;5187160;28;20079;-72
2022/06/30 02:20:38;;;;;;;3.88;2.58;;;;;;;16.80;95.95;100433.81;5180603;28;20285;-73
2022/06/30 02:23:09;;;;;;;3.95;2.17;;;;;;;16.96;95.96;100436.34;5189543;28;20025;-73
2022/06/30 02:25:39;;;;;;;3.45;2.05;;;;;;;17.00;95.10;100445.75;5185615;28;20030;-73
2022/06/30 02:28:09;;;;;;;5.57;1.95;;;;;;;17.02;95.91;100446.50;5180800;28;20057;-73
2022/06/30 02:30:40;;;;;;;4.40;2.30;;;;;;;17.16;94.23;100439.38;5181152;28;20050;-74
2022/06/30 02:33:11;;;;;;;3.10;2.03;;;;;;;17.11;94.79;100433.56;5180929;28;20030;-73
2022/06/30 02:35:41;;;;;;;3.42;2.00;;;;;;;16.99;96.47;100430.88;5169158;28;20085;-71
2022/06/30 02:38:12;;;;;;;4.18;2.15;;;;;;;17.03;96.92;100427.09;5170710;28;20038;-71
2022/06/30 02:40:42;;;;;;;3.90;1.90;;;;;;;17.30;94.40;100425.31;5181045;28;20083;-71
2022/06/30 02:43:13;;;;;;;4.13;2.05;;;;;;;17.34;94.01;100413.63;5179916;28;20048;-70
2022/06/30 02:45:43;;;;;;;3.42;1.98;;;;;;;17.22;95.44;100417.03;5180395;28;20084;-71
2022/06/30 02:48:15;;;;;;;4.18;2.20;;;;;;;17.22;95.55;100406.44;5177997;28;20514;-71
2022/06/30 02:50:45;;;;;;;5.05;2.00;;;;;;;17.15;96.38;100410.47;5162848;28;20265;-71
2022/06/30 02:53:16;;;;;;;4.38;2.10;;;;;;;17.25;95.54;100400.97;5171045;28;20539;-70
2022/06/30 02:55:46;;;;;;;5.75;2.20;;;;;;;17.15;95.77;100402.53;5176685;28;20388;-71
2022/06/30 02:58:17;;;;;;;4.57;2.00;;;;;;;16.81;98.50;100395.91;5179831;28;20026;-71
2022/06/30 03:00:48;;;;;;;3.85;2.10;;;;;;;16.50;100.00;100394.47;5180977;28;20026;-71
2022/06/30 03:03:18;;;;;;;4.57;2.30;;;;;;;16.58;100.00;100397.47;5180756;28;20036;-71
2022/06/30 03:05:48;;;;;;;5.07;2.30;;;;;;;16.54;100.00;100393.34;5168651;28;20034;-71
2022/06/30 03:08:19;;;;;;;4.63;2.10;;;;;;;16.82;98.85;100388.84;5170642;28;20485;-73
2022/06/30 03:10:49;;;;;;;5.75;2.30;;;;;;;16.89;98.02;100387.50;5181101;28;20034;-73
2022/06/30 03:13:20;;;;;;;3.92;2.15;;;;;;;16.76;99.00;100391.03;5180593;28;20116;-74
2022/06/30 03:15:50;;;;;;;3.45;2.20;;;;;;;16.81;99.60;100395.09;5179274;28;20030;-73
2022/06/30 03:18:20;;;;;;;4.28;2.30;;;;;;;16.98;98.49;100397.50;5175988;28;20041;-73
2022/06/30 03:20:51;;;;;;;4.13;2.30;;;;;;;17.03;97.78;100405.97;5166235;28;20034;-73
2022/06/30 03:23:21;;;;;;;4.38;2.47;;;;;;;16.81;99.27;100392.44;5179794;28;20394;-73
2022/06/30 03:25:52;;;;;;;5.38;2.42;;;;;;;16.64;99.92;100403.22;5178862;28;20439;-73
2022/06/30 03:28:22;;;;;;;5.13;2.30;;;;;;;16.56;100.00;100396.72;5180049;28;20026;-73
2022/06/30 03:30:53;;;;;;;6.78;2.53;;;;;;;16.68;100.00;100386.25;5179207;28;20032;-74
2022/06/30 03:33:23;;;;;;;4.38;2.15;;;;;;;16.84;99.47;100392.25;5180203;28;20026;-73
2022/06/30 03:35:53;;;;;;;3.88;2.20;;;;;;;16.92;99.69;100388.16;5169970;28;20113;-73
2022/06/30 03:38:24;;;;;;;5.35;2.42;;;;;;;17.10;98.74;100386.97;5169888;28;20026;-73
2022/06/30 03:40:54;;;;;;;8.35;2.40;;;;;;;17.16;98.22;100391.00;5179964;28;20026;-74
2022/06/30 03:43:24;;;;;;;8.70;2.33;;;;;;;17.22;97.02;100385.31;5178703;28;20427;-72
2022/06/30 03:45:55;;;;;;;5.22;2.45;;;;;;;17.17;96.38;100387.44;5179819;28;20053;-73
2022/06/30 03:48:25;;;;;;;4.50;2.30;;;;;;;17.04;99.94;100390.03;5175552;28;20399;-73
2022/06/30 03:50:55;;;;;;;5.47;2.38;;;;;;;17.17;97.01;100398.00;5166813;28;20030;-74
2022/06/30 03:53:26;;;;;;;5.57;2.55;;;;;;;16.93;97.48;100402.19;5179615;28;20537;-73
2022/06/30 03:55:57;;;;;;;8.98;2.55;;;;;;;16.53;100.00;100404.84;5181981;28;20030;-73
2022/06/30 03:58:27;;;;;;;4.72;2.50;;;;;;;16.44;100.00;100406.25;5183255;28;20411;-73
2022/06/30 04:00:57;;;;;;;5.57;2.10;;;;;;;16.33;100.00;100410.44;5176450;28;20041;-73
2022/06/30 04:03:28;;;;;;;7.10;2.35;;;;;;;16.15;100.00;100409.81;5174368;28;20026;-73
2022/06/30 04:05:58;;;;;;;4.68;2.17;;;;;;;16.14;100.00;100401.97;5183613;28;20058;-73
2022/06/30 04:08:28;;;;;;;12.63;2.72;;;;;;;16.06;100.00;100405.06;5183292;28;20113;-74
2022/06/30 04:10:59;;;;;;;9.82;2.50;;;;;;;15.98;100.00;100404.69;5183788;28;20117;-73
2022/06/30 04:13:29;;;;;;;5.72;2.47;;;;;;;16.04;100.00;100399.03;5184160;28;20388;-73
2022/06/30 04:15:59;;;;;;;7.03;2.65;;;;;;;16.15;100.00;100387.84;5183929;28;20030;-73
2022/06/30 04:18:30;;;;;;;4.00;2.47;;;;;;;16.25;100.00;100392.44;5179102;28;20290;-73
2022/06/30 04:21:00;;;;;;;5.18;2.22;;;;;;;16.29;100.00;100391.34;5172333;28;20132;-73
2022/06/30 04:23:30;;;;;;;7.63;2.28;;;;;;;16.22;100.00;100395.28;5184930;28;20032;-73
2022/06/30 04:26:01;;;;;;;5.03;2.28;;;;;;;16.25;100.00;100395.09;5184775;28;20191;-73
2022/06/30 04:28:31;;;;;;;11.63;2.58;;;;;;;16.31;100.00;100399.16;5182899;28;20439;-73
2022/06/30 04:33:50;;;;;;;6.18;2.50;;;;;;;16.73;100.00;100392.06;5171783;28;20053;-73
2022/06/30 04:36:21;;;;;;;4.05;2.53;;;;;;;17.18;100.00;100397.88;5181619;28;20031;-73
2022/06/30 04:38:51;;;;;;;6.63;2.78;;;;;;;17.25;100.00;100401.81;5181593;28;20041;-73
2022/06/30 04:41:24;;;;;;;6.25;2.40;;;;;;;17.48;100.00;100403.00;5173705;28;20065;-72
2022/06/30 04:43:57;;;;;;;4.75;2.80;;;;;;;17.47;99.35;100410.06;5166411;28;20034;-73
2022/06/30 04:46:28;;;;;;;5.20;2.72;;;;;;;17.19;100.00;100412.81;5170583;28;20415;-73
2022/06/30 04:48:58;;;;;;;4.60;2.50;;;;;;;17.29;100.00;100402.47;5170960;28;20037;-73
2022/06/30 04:51:28;;;;;;;5.00;2.22;;;;;;;17.54;100.00;100405.22;5171946;28;20262;-73
2022/06/30 04:53:59;;;;;;;5.53;2.58;;;;;;;17.82;98.59;100408.53;5177193;28;20034;-73
2022/06/30 04:56:31;;;;;;;4.57;2.60;;;;;;;17.98;95.53;100403.91;5182507;28;20030;-73
2022/06/30 04:59:01;;;;;;;4.40;2.45;;;;;;;18.80;89.83;100400.66;5182850;28;20507;-73
2022/06/30 05:01:31;;;;;;;6.03;2.50;;;;;;;18.74;90.12;100395.81;5181869;28;20037;-73
2022/06/30 05:04:02;;;;;;;5.45;2.63;;;;;;;19.07;89.00;100403.97;5182358;28;20042;-73
2022/06/30 05:06:32;;;;;;;3.25;2.20;;;;;;;19.62;88.61;100401.59;5181049;28;20025;-73
2022/06/30 05:09:02;;;;;;;5.88;2.30;;;;;;;19.74;88.42;100406.00;5174971;28;20027;-73
2022/06/30 05:11:33;;;;;;;7.50;2.58;;;;;;;18.94;93.66;100403.16;5182562;28;20488;-73
2022/06/30 05:14:03;;;;;;;7.72;2.65;;;;;;;18.88;94.53;100406.25;5182464;28;20033;-73
2022/06/30 05:16:33;;;;;;;5.60;2.55;;;;;;;18.79;95.04;100398.97;5182168;28;20014;-73
2022/06/30 05:19:04;;;;;;;5.00;2.38;;;;;;;18.81;98.09;100402.38;5176367;28;20429;-70
2022/06/30 05:21:34;;;;;;;4.13;2.47;;;;;;;18.92;97.29;100410.38;5173030;28;20689;-73
2022/06/30 05:26:54;;;;;;;5.40;2.08;;;;;;;20.50;89.21;100395.63;5176370;28;20037;-73
2022/06/30 05:29:24;;;;;;;5.68;2.75;;;;;;;20.53;88.63;100396.25;5182030;28;20033;-73
2022/06/30 05:31:54;;;;;;;7.18;2.70;;;;;;;20.30;89.05;100396.34;5170500;28;20411;-74
2022/06/30 05:34:25;;;;;;;4.30;2.40;;;;;;;21.11;86.29;100386.16;5176622;28;20456;-74
2022/06/30 05:36:55;;;;;;;5.22;2.42;;;;;;;20.73;87.80;100387.53;5180182;28;20022;-72
2022/06/30 05:39:25;;;;;;;5.88;3.03;;;;;;;19.70;91.52;100388.63;5181055;28;20494;-72
2022/06/30 05:41:56;;;;;;;4.70;2.97;;;;;;;19.72;91.68;100386.69;5182249;28;20036;-72
2022/06/30 05:44:27;;;;;;;6.97;2.80;;;;;;;20.71;87.15;100384.16;5182058;28;20269;-72
2022/06/30 05:46:58;;;;;;;5.50;3.00;;;;;;;21.64;83.94;100381.72;5182093;28;20029;-72
2022/06/30 05:49:28;;;;;;;5.68;2.83;;;;;;;22.06;82.52;100378.94;5169973;28;20042;-72
2022/06/30 05:51:59;;;;;;;8.15;3.30;;;;;;;21.38;84.65;100385.69;5175287;28;20514;-71
2022/06/30 05:54:29;;;;;;;6.93;3.47;;;;;;;21.02;86.07;100378.06;5182469;28;20053;-70
2022/06/30 05:57:00;;;;;;;7.10;2.75;;;;;;;21.23;84.79;100386.97;5182910;28;20017;-71
2022/06/30 05:59:32;;;;;;;5.47;2.60;;;;;;;21.16;87.71;100391.06;5182798;28;20026;-73
2022/06/30 06:02:02;;;;;;;5.75;2.90;;;;;;;21.03;88.06;100390.41;5169847;28;20285;-71
2022/06/30 06:04:34;;;;;;;4.68;2.90;;;;;;;21.33;87.29;100388.72;5176912;28;20040;-70
2022/06/30 06:07:04;;;;;;;6.13;3.00;;;;;;;21.42;88.26;100392.44;5181256;28;20038;-71
2022/06/30 06:09:34;;;;;;;4.80;2.72;;;;;;;22.41;85.08;100386.59;5181407;28;20613;-71
2022/06/30 06:12:05;;;;;;;4.93;2.97;;;;;;;23.22;80.77;100378.25;5181423;28;20025;-71
2022/06/30 06:14:35;;;;;;;5.15;3.08;;;;;;;23.09;80.10;100376.81;5181246;28;20180;-71
2022/06/30 06:17:05;;;;;;;5.88;3.30;;;;;;;23.27;79.48;100378.69;5180436;28;20562;-71
2022/06/30 06:19:36;;;;;;;6.10;3.20;;;;;;;22.94;81.83;100383.50;5171031;28;20026;-71
2022/06/30 06:22:06;;;;;;;3.92;2.70;;;;;;;23.53;79.70;100379.81;5175909;28;20038;-70
2022/06/30 06:24:36;;;;;;;27.60;3.13;;;;;;;24.34;76.27;100380.13;5181177;28;20071;-71
2022/06/30 06:27:07;;;;;;;5.82;2.60;;;;;;;25.13;73.94;100390.16;5180811;28;20061;-71
2022/06/30 06:29:37;;;;;;;5.03;2.60;;;;;;;23.99;76.82;100390.63;5180192;28;20044;-71
2022/06/30 06:32:08;;;;;;;5.90;2.80;;;;;;;23.50;78.54;100392.63;5169946;28;20022;-71
2022/06/30 06:34:38;;;;;;;4.88;2.65;;;;;;;23.17;81.33;100391.16;5168627;28;20281;-68
2022/06/30 06:37:08;;;;;;;3.67;2.47;;;;;;;23.84;80.00;100381.38;5157518;28;20057;-69
2022/06/30 06:39:40;;;;;;;5.15;2.47;;;;;;;24.97;76.17;100373.94;5167094;28;20021;-71
2022/06/30 06:42:10;;;;;;;6.03;3.10;;;;;;;25.17;73.71;100383.50;5178993;28;20026;-71
2022/06/30 06:44:41;;;;;;;5.60;2.90;;;;;;;25.37;72.96;100374.38;5179103;28;20034;-71
2022/06/30 06:47:11;;;;;;;3.53;2.50;;;;;;;26.08;73.28;100373.31;5178874;28;20373;-71
2022/06/30 06:49:43;;;;;;;4.75;2.58;;;;;;;26.22;72.59;100373.59;5175437;28;20029;-71
2022/06/30 06:52:13;;;;;;;7.88;5.32;;;;;;;25.53;74.77;100377.19;5175502;28;20079;-71
2022/06/30 06:54:44;;;;;;;9.70;4.90;;;;;;;26.11;72.92;100373.84;5177156;28;20029;-70
2022/06/30 06:57:14;;;;;;;6.35;4.72;;;;;;;26.06;75.26;100378.84;5179058;28;20018;-71
2022/06/30 06:59:44;;;;;;;7.28;5.07;;;;;;;26.25;73.67;100380.44;5180629;28;20033;-71
2022/06/30 07:02:15;;;;;;;6.43;4.80;;;;;;;25.12;79.20;100380.47;5180577;28;20096;-71
2022/06/30 07:04:46;;;;;;;8.18;4.60;;;;;;;26.04;76.31;100369.25;5177365;28;20037;-71
2022/06/30 07:07:16;;;;;;;7.75;5.60;;;;;;;26.85;72.76;100372.22;5173413;28;20030;-71
2022/06/30 07:09:47;;;;;;;10.50;6.70;;;;;;;27.45;70.93;100377.25;5180258;28;20446;-70
2022/06/30 07:12:17;;;;;;;10.13;7.18;;;;;;;27.89;71.74;100367.88;5180780;28;20021;-71
2022/06/30 07:14:48;;;;;;;12.38;8.48;;;;;;;26.96;74.48;100359.34;5180195;28;20025;-70
2022/06/30 07:17:19;;;;;;;10.52;8.07;;;;;;;27.47;71.97;100364.47;5178565;28;20022;-71
2022/06/30 07:19:50;;;;;;;11.18;7.85;;;;;;;27.37;72.89;100355.78;5175630;28;20037;-71
2022/06/30 07:22:21;;;;;;;10.52;7.43;;;;;;;27.92;71.25;100350.59;5179448;28;20030;-71
2022/06/30 07:24:51;;;;;;;12.70;7.85;;;;;;;27.53;73.58;100350.41;5180424;28;20479;-71
2022/06/30 07:27:22;;;;;;;11.95;7.47;;;;;;;27.73;70.79;100353.59;5179836;28;20087;-70
2022/06/30 07:29:52;;;;;;;10.43;7.00;;;;;;;28.15;71.91;100341.63;5179869;28;20133;-71
2022/06/30 07:32:22;;;;;;;10.73;8.03;;;;;;;27.98;71.71;100348.03;5180476;28;20584;-71
2022/06/30 07:34:53;;;;;;;11.35;6.75;;;;;;;28.49;70.18;100349.47;5180408;28;20342;-71
2022/06/30 07:37:23;;;;;;;11.38;7.32;;;;;;;28.74;68.21;100355.38;5168532;28;20038;-71
2022/06/30 07:39:53;;;;;;;10.20;6.47;;;;;;;27.92;70.51;100362.16;5168434;28;20038;-71
2022/06/30 07:42:24;;;;;;;9.35;6.55;;;;;;;28.73;69.15;100362.81;5178502;28;20037;-70
2022/06/30 07:44:54;;;;;;;8.77;6.37;;;;;;;28.26;70.16;100362.78;5180000;28;20030;-72
2022/06/30 07:47:25;;;;;;;9.15;6.40;;;;;;;29.35;68.25;100359.94;5179079;28;20296;-71
2022/06/30 07:49:55;;;;;;;9.75;7.03;;;;;;;30.16;66.17;100350.19;5171611;28;20034;-71
2022/06/30 07:52:26;;;;;;;11.23;7.10;;;;;;;29.76;66.82;100350.56;5166565;28;20481;-71
2022/06/30 07:54:58;;;;;;;12.13;8.32;;;;;;;30.51;65.56;100341.34;5177478;28;20033;-71
2022/06/30 07:57:29;;;;;;;11.98;7.63;;;;;;;30.64;66.04;100344.25;5178403;28;20403;-70
2022/06/30 08:00:00;;;;;;;12.02;7.53;;;;;;;30.79;63.89;100335.09;5178973;28;20095;-71
2022/06/30 08:02:30;;;;;;;8.98;6.70;;;;;;;30.27;66.94;100345.16;5179270;28;20034;-71
2022/06/30 08:05:00;;;;;;;10.13;7.03;;;;;;;29.40;67.99;100346.78;5178883;28;20491;-71
2022/06/30 08:07:31;;;;;;;12.13;6.93;;;;;;;30.63;63.39;100338.00;5175402;28;20672;-71
2022/06/30 08:10:03;;;;;;;8.32;6.05;;;;;;;30.54;64.13;100333.72;5179724;28;20038;-71
2022/06/30 08:12:35;;;;;;;11.20;6.07;;;;;;;30.43;65.17;100333.38;5162243;28;20455;-71
2022/06/30 08:15:05;;;;;;;8.20;6.55;;;;;;;30.57;66.91;100330.66;5206840;23;20129;-72
2022/06/30 08:17:36;;;;;;;10.18;6.57;;;;;;;30.51;66.38;100327.84;5197990;28;20123;-73
2022/06/30 08:20:07;;;;;;;10.05;7.03;;;;;;;30.06;67.48;100322.66;5198921;28;20133;-73
2022/06/30 08:22:37;;;;;;;9.38;6.70;;;;;;;30.41;64.98;100314.66;5198173;28;20022;-74
2022/06/30 08:25:08;;;;;;;7.45;6.43;;;;;;;29.90;67.41;100312.84;5213371;28;20523;-75
2022/06/30 08:27:38;;;;;;;10.63;6.40;;;;;;;29.06;69.59;100314.03;5199223;28;20071;-75
2022/06/30 08:30:09;;;;;;;7.28;6.10;;;;;;;30.57;66.35;100300.13;5196913;28;20037;-75
2022/06/30 08:32:40;;;;;;;8.13;6.07;;;;;;;31.37;63.49;100291.72;5198675;28;20112;-76
2022/06/30 08:35:10;;;;;;;7.07;5.78;;;;;;;31.28;64.90;100290.16;5199528;28;20075;-74
2022/06/30 08:37:41;;;;;;;9.07;6.43;;;;;;;31.20;65.30;100293.84;5199278;28;20136;-73
2022/06/30 08:43:03;;;;;;;7.72;6.07;;;;;;;31.23;63.86;100289.94;5202083;28;20144;-73
2022/06/30 08:45:34;;;;;;;10.68;6.88;;;;;;;30.94;65.28;100293.56;5203188;28;20033;-73
2022/06/30 08:48:04;;;;;;;6.63;5.82;;;;;;;32.93;62.43;100298.97;5202236;28;20037;-73
2022/06/30 08:50:35;;;;;;;7.65;6.40;;;;;;;32.51;61.21;100295.66;5202791;28;20051;-73
2022/06/30 08:53:07;;;;;;;9.25;5.85;;;;;;;32.64;61.39;100298.44;5204045;28;20087;-73
2022/06/30 08:55:38;;;;;;;8.85;5.90;;;;;;;31.87;63.02;100289.66;5203200;28;20120;-73
2022/06/30 08:58:09;;;;;;;9.50;6.05;;;;;;;31.26;63.68;100287.69;5202642;28;20100;-72
2022/06/30 09:00:40;;;;;;;9.93;6.32;;;;;;;31.04;65.75;100277.03;5203268;28;20033;-71
2022/06/30 09:03:11;;;;;;;10.57;6.70;;;;;;;31.14;64.60;100278.41;5203374;28;20017;-73
2022/06/30 09:05:44;;;;;;;8.63;6.10;;;;;;;32.85;60.81;100272.09;5203488;28;20438;-73
2022/06/30 09:08:17;;;;;;;7.38;5.90;;;;;;;32.87;60.18;100270.00;5203029;28;20021;-73
2022/06/30 09:10:50;;;;;;;7.47;6.18;;;;;;;32.45;61.60;100270.28;5199598;28;20111;-74
2022/06/30 09:13:22;;;;;;;11.25;6.85;;;;;;;33.20;60.94;100276.38;5203486;28;20375;-73
2022/06/30 09:15:58;;;;;;;9.00;6.75;;;;;;;33.55;59.08;100275.97;5203116;28;20079;-73
2022/06/30 09:18:29;;;;;;;8.52;6.60;;;;;;;33.43;60.79;100276.78;5201850;28;20021;-73
2022/06/30 09:20:59;;;;;;;9.02;6.20;;;;;;;33.55;60.08;100264.28;5203358;28;20032;-75
2022/06/30 09:23:30;;;;;;;7.53;6.15;;;;;;;32.17;61.99;100257.78;5203122;28;20115;-74
2022/06/30 09:26:02;;;;;;;8.68;6.35;;;;;;;32.28;62.50;100265.38;5201781;28;20037;-74
2022/06/30 09:28:46;;;;;;;9.07;5.90;;;;;;;32.06;63.70;100266.50;5202392;28;20116;-74
2022/06/30 09:31:39;;;;;;;9.52;6.00;;;;;;;32.06;62.01;100275.44;5198701;28;20025;-74
2022/06/30 09:34:18;;;;;;;8.30;6.38;;;;;;;31.90;62.25;100273.03;5202013;28;20033;-75
2022/06/30 09:36:51;;;;;;;10.18;7.10;;;;;;;30.28;66.18;100268.59;5197966;28;20028;-74
2022/06/30 09:39:22;;;;;;;9.18;7.60;;;;;;;29.84;66.93;100266.91;5192596;28;20030;-74
2022/06/30 09:41:53;;;;;;;10.60;6.95;;;;;;;30.92;65.44;100275.84;5203171;28;20443;-74
2022/06/30 09:44:24;;;;;;;8.95;6.03;;;;;;;32.06;62.41;100266.50;5202692;28;20052;-74
2022/06/30 09:46:57;;;;;;;7.57;5.97;;;;;;;31.24;63.43;100261.88;5202106;28;20091;-74
2022/06/30 09:49:41;;;;;;;8.57;6.35;;;;;;;32.31;62.83;100268.53;5202097;28;20035;-74
2022/06/30 09:52:25;;;;;;;10.93;6.43;;;;;;;32.28;61.95;100263.53;5202427;28;20234;-74
2022/06/30 09:55:07;;;;;;;9.18;6.68;;;;;;;31.50;62.35;100257.53;5195824;28;20108;-74
2022/06/30 09:57:42;;;;;;;9.07;5.72;;;;;;;32.90;59.87;100258.75;5201369;28;20056;-74
2022/06/30 10:00:16;;;;;;;8.00;6.15;;;;;;;31.95;62.84;100265.19;5192387;28;20018;-74
2022/06/30 10:02:49;;;;;;;8.27;6.20;;;;;;;31.95;61.45;100267.03;5198608;28;20036;-74
2022/06/30 10:05:19;;;;;;;7.40;5.70;;;;;;;31.91;62.26;100254.94;5202381;28;20033;-75
2022/06/30 10:07:50;;;;;;;8.55;5.70;;;;;;;31.88;64.05;100248.06;5201864;28;20036;-75
2022/06/30 10:10:20;;;;;;;8.55;5.90;;;;;;;32.25;60.71;100253.06;5202213;28;20025;-75
2022/06/30 10:12:52;;;;;;;19.73;5.82;;;;;;;31.79;61.84;100254.66;5202620;28;20029;-75
2022/06/30 10:15:23;;;;;;;9.95;5.63;;;;;;;31.83;62.97;100255.94;5202068;28;20495;-75
2022/06/30 10:17:55;;;;;;;7.97;6.03;;;;;;;31.34;62.97;100257.81;5202403;28;20344;-74
2022/06/30 10:20:28;;;;;;;8.63;6.50;;;;;;;31.08;64.64;100260.25;5193333;28;20423;-75
2022/06/30 10:22:59;;;;;;;8.43;6.13;;;;;;;30.73;64.43;100254.03;5202033;28;20052;-75
2022/06/30 10:25:31;;;;;;;9.45;6.25;;;;;;;30.20;66.06;100257.09;5201719;28;20038;-74
2022/06/30 10:28:03;;;;;;;9.45;6.07;;;;;;;30.13;66.68;100248.06;5201540;28;20036;-74
2022/06/30 10:30:58;;;;;;;8.85;6.05;;;;;;;30.05;64.83;100256.28;5201719;28;20022;-75
2022/06/30 10:33:55;;;;;;;8.15;6.32;;;;;;;29.53;66.83;100250.03;5198733;28;20052;-74
2022/06/30 10:36:31;;;;;;;8.43;5.80;;;;;;;29.92;66.57;100251.47;5198715;28;20033;-75
2022/06/30 10:39:09;;;;;;;;;;;;;;;30.32;66.10;100245.66;5194516;28;20463;-75
2022/06/30 10:41:44;;;;;;;9.15;5.90;;;;;;;30.29;66.06;100251.41;5195838;28;19923;-74
2022/06/30 10:44:19;;;;;;;12.00;6.80;;;;;;;30.14;68.78;100245.22;5197533;28;20025;-74
2022/06/30 10:46:49;;;;;;;10.48;6.63;;;;;;;30.36;67.81;100243.38;5196247;28;20375;-74
2022/06/30 10:49:20;;;;;;;9.97;5.87;;;;;;;30.24;65.73;100245.75;5198617;28;20041;-74
2022/06/30 10:51:55;;;;;;;10.35;6.43;;;;;;;30.45;65.47;100248.50;5197554;28;20373;-75
2022/06/30 10:54:33;;;;;;;8.95;6.03;;;;;;;29.75;65.22;100243.78;5197805;28;20138;-75
2022/06/30 10:57:04;;;;;;;12.48;6.05;;;;;;;30.01;66.42;100239.59;5195582;28;20056;-75
2022/06/30 10:59:42;;;;;;;7.53;5.93;;;;;;;30.90;65.48;100237.41;5198396;28;20490;-75
2022/06/30 11:02:13;;;;;;;9.88;5.38;;;;;;;30.66;63.93;100231.53;5198790;28;20032;-75
2022/06/30 11:04:48;;;;;;;7.97;5.20;;;;;;;30.73;66.24;100227.03;5200284;28;20026;-75
2022/06/30 11:07:25;;;;;;;9.63;5.90;;;;;;;30.36;64.87;100225.34;5193544;28;20029;-75
2022/06/30 11:09:59;;;;;;;9.13;5.90;;;;;;;30.12;65.01;100231.03;5196250;28;20041;-75
2022/06/30 11:12:29;;;;;;;7.97;5.57;;;;;;;30.16;64.84;100226.97;5200624;28;20033;-75
2022/06/30 11:15:00;;;;;;;10.77;5.43;;;;;;;29.66;64.99;100218.78;5201021;28;20033;-74
2022/06/30 11:17:31;;;;;;;10.18;5.68;;;;;;;28.67;67.09;100223.59;5200372;28;20025;-74
2022/06/30 11:20:13;;;;;;;8.60;5.15;;;;;;;28.87;66.92;100212.19;5196243;28;20037;-75
2022/06/30 11:22:44;;;;;;;10.40;5.40;;;;;;;29.34;64.96;100208.28;5199420;28;20047;-75
2022/06/30 11:28:12;;;;;;;7.35;5.18;;;;;;;29.30;65.28;100206.13;5193925;28;20509;-74
2022/06/30 11:30:43;;;;;;;9.15;4.80;;;;;;;29.45;64.34;100198.91;5197796;28;20025;-74
2022/06/30 11:33:14;;;;;;;7.13;4.72;;;;;;;29.68;63.08;100187.06;5199794;28;20025;-75
2022/06/30 11:35:44;;;;;;;11.88;5.10;;;;;;;29.67;64.40;100196.19;5199125;28;20028;-74
2022/06/30 11:38:25;;;;;;;7.93;5.00;;;;;;;29.30;65.40;100201.59;5196627;28;20254;-75
2022/06/30 11:41:54;;;;;;;8.00;5.72;;;;;;;29.62;66.91;100182.44;5197886;28;20049;-74
2022/06/30 11:43:49;;;;;;;7.75;5.38;;;;;;;29.74;66.33;100191.72;5195836;28;20483;-75
2022/06/30 11:46:20;;;;;;;7.60;5.28;;;;;;;29.83;67.63;100185.22;5193010;28;20033;-75
2022/06/30 11:48:50;;;;;;;8.40;5.50;;;;;;;30.24;66.28;100181.00;5198756;28;20028;-75
2022/06/30 11:51:21;;;;;;;7.47;5.07;;;;;;;30.28;63.08;100176.91;5197523;28;20474;-75
2022/06/30 11:53:51;;;;;;;8.60;4.97;;;;;;;30.09;66.04;100187.47;5193867;28;20096;-75
2022/06/30 11:56:22;;;;;;;8.43;4.68;;;;;;;30.01;65.14;100176.72;5193922;28;20355;-75
2022/06/30 11:59:05;;;;;;;8.38;4.85;;;;;;;29.62;67.36;100184.28;5192036;28;20128;-75
2022/06/30 12:01:35;;;;;;;8.10;4.93;;;;;;;29.71;65.22;100183.19;5196335;28;20348;-75